createdAt,value
2022-10-13T00:01:19.579Z,99859.40
2022-10-13T00:03:48.471Z,99856.40
2022-10-13T00:06:19.898Z,99853.80
2022-10-13T00:08:47.774Z,99851.20
2022-10-13T00:11:20.323Z,99843.20
2022-10-13T00:13:49.927Z,99841.80
2022-10-13T00:16:21.110Z,99830.40
2022-10-13T00:18:50.154Z,99836.40
2022-10-13T00:21:22.426Z,99835.80
2022-10-13T00:23:52.141Z,99836.00
2022-10-13T00:26:24.392Z,99830.80
2022-10-13T00:28:53.039Z,99828.00
2022-10-13T00:31:31.353Z,99830.40
2022-10-13T00:34:01.674Z,99834.20
2022-10-13T00:36:29.586Z,99833.20
2022-10-13T00:38:58.333Z,99830.40
2022-10-13T00:41:26.572Z,99835.80
2022-10-13T00:44:01.045Z,99831.40
2022-10-13T00:46:37.185Z,99835.40
2022-10-13T00:49:16.813Z,99832.60
2022-10-13T00:51:50.206Z,99825.60
2022-10-13T00:54:22.242Z,99824.20
2022-10-13T00:56:52.195Z,99819.80
2022-10-13T00:59:29.039Z,99820.20
2022-10-13T01:01:59.593Z,99817.40
2022-10-13T01:04:33.355Z,99814.80
2022-10-13T01:07:02.875Z,99812.80
2022-10-13T01:09:37.422Z,99813.40
2022-10-13T01:12:34.277Z,99816.40
2022-10-13T01:15:10.779Z,99818.60
2022-10-13T01:17:56.945Z,99812.40
2022-10-13T01:20:50.410Z,99817.60
2022-10-13T01:23:58.224Z,99815.80
2022-10-13T01:27:19.268Z,99807.40
2022-10-13T01:30:17.049Z,99808.80
2022-10-13T01:33:24.821Z,99805.40
2022-10-13T01:36:04.360Z,99807.40
2022-10-13T01:38:46.237Z,99798.00
2022-10-13T01:41:40.006Z,99794.80
2022-10-13T01:44:48.489Z,99791.40
2022-10-13T01:47:18.869Z,99787.00
2022-10-13T01:49:48.013Z,99780.40
2022-10-13T01:52:20.558Z,99781.60
2022-10-13T01:54:51.254Z,99774.80
2022-10-13T01:57:36.077Z,99772.80
2022-10-13T02:00:13.630Z,99774.40
2022-10-13T02:02:56.345Z,99773.60
2022-10-13T02:06:06.449Z,99774.00
2022-10-13T02:08:39.137Z,99783.20
2022-10-13T02:11:20.358Z,99779.60
2022-10-13T02:14:30.242Z,99778.60
2022-10-13T02:17:03.675Z,99771.80
2022-10-13T02:19:37.837Z,99772.20
2022-10-13T02:22:09.786Z,99770.80
2022-10-13T02:24:37.480Z,99767.40
2022-10-13T02:27:07.233Z,99758.80
2022-10-13T02:29:34.815Z,99756.80
2022-10-13T02:32:02.396Z,99758.60
2022-10-13T02:34:30.591Z,99757.60
2022-10-13T02:36:58.215Z,99756.40
2022-10-13T02:39:25.877Z,99756.40
2022-10-13T02:41:53.828Z,99756.00
2022-10-13T02:44:21.392Z,99756.00
2022-10-13T02:46:48.916Z,99757.60
2022-10-13T02:49:16.542Z,99755.00
2022-10-13T02:51:44.110Z,99758.20
2022-10-13T02:54:11.623Z,99750.60
2022-10-13T02:56:39.273Z,99758.00
2022-10-13T02:59:07.004Z,99756.80
2022-10-13T03:01:35.862Z,99753.60
2022-10-13T03:04:03.472Z,99754.20
2022-10-13T03:06:31.032Z,99751.00
2022-10-13T03:08:59.367Z,99751.40
2022-10-13T03:11:26.909Z,99747.80
2022-10-13T03:13:54.527Z,99746.80
2022-10-13T03:16:22.436Z,99741.40
2022-10-13T03:18:49.993Z,99740.60
2022-10-13T03:21:17.645Z,99737.20
2022-10-13T03:23:45.224Z,99737.00
2022-10-13T03:26:12.901Z,99740.80
2022-10-13T03:28:40.777Z,99740.20
2022-10-13T03:31:12.083Z,99740.60
2022-10-13T03:33:41.063Z,99738.80
2022-10-13T03:36:08.815Z,99732.60
2022-10-13T03:38:37.074Z,99732.80
2022-10-13T03:41:17.054Z,99732.20
2022-10-13T03:43:45.524Z,99734.00
2022-10-13T03:46:16.593Z,99736.80
2022-10-13T03:48:44.209Z,99741.60
2022-10-13T03:51:15.855Z,99742.60
2022-10-13T03:53:43.462Z,99745.20
2022-10-13T03:56:17.509Z,99739.40
2022-10-13T03:58:45.348Z,99737.80
2022-10-13T04:01:14.264Z,99733.40
2022-10-13T04:03:42.601Z,99736.60
2022-10-13T04:06:10.464Z,99734.80
2022-10-13T04:08:38.239Z,99739.20
2022-10-13T04:11:11.772Z,99737.00
2022-10-13T04:13:40.185Z,99739.00
2022-10-13T04:16:15.697Z,99733.00
2022-10-13T04:18:45.189Z,99732.80
2022-10-13T04:21:15.091Z,99729.60
2022-10-13T04:23:42.853Z,99734.60
2022-10-13T04:26:23.017Z,99734.40
2022-10-13T04:28:52.755Z,99728.00
2022-10-13T04:31:24.628Z,99726.00
2022-10-13T04:33:53.817Z,99729.20
2022-10-13T04:36:21.977Z,99718.40
2022-10-13T04:38:50.138Z,99726.40
2022-10-13T04:41:19.391Z,99731.80
2022-10-13T04:43:51.651Z,99725.80
2022-10-13T04:46:24.381Z,99724.00
2022-10-13T04:48:53.067Z,99725.40
2022-10-13T04:51:24.533Z,99726.60
2022-10-13T04:54:02.719Z,99719.60
2022-10-13T04:56:30.283Z,99719.80
2022-10-13T04:58:57.966Z,99719.40
2022-10-13T05:01:26.320Z,99719.80
2022-10-13T05:03:57.937Z,99722.60
2022-10-13T05:06:30.677Z,99726.20
2022-10-13T05:08:58.808Z,99728.20
2022-10-13T05:11:29.015Z,99726.60
2022-10-13T05:13:57.760Z,99728.20
2022-10-13T05:16:26.225Z,99730.00
2022-10-13T05:18:55.343Z,99729.00
2022-10-13T05:21:27.663Z,99729.80
2022-10-13T05:23:57.634Z,99729.60
2022-10-13T05:26:28.997Z,99730.00
2022-10-13T05:29:00.757Z,99732.20
2022-10-13T05:31:31.572Z,99726.60
2022-10-13T05:34:00.033Z,99727.80
2022-10-13T05:36:34.943Z,99728.40
2022-10-13T05:39:07.706Z,99727.00
2022-10-13T05:41:35.720Z,99731.00
2022-10-13T05:44:07.975Z,99730.20
2022-10-13T05:46:36.553Z,99730.60
2022-10-13T05:49:04.780Z,99728.40
2022-10-13T05:51:37.996Z,99726.60
2022-10-13T05:54:17.455Z,99730.60
2022-10-13T05:56:53.145Z,99718.40
2022-10-13T05:59:27.145Z,99720.60
2022-10-13T06:01:55.876Z,99724.20
2022-10-13T06:04:30.547Z,99723.20
2022-10-13T06:06:58.283Z,99723.80
2022-10-13T06:09:34.831Z,99728.80
2022-10-13T06:12:02.384Z,99721.60
2022-10-13T06:14:30.767Z,99727.40
2022-10-13T06:16:58.344Z,99724.60
2022-10-13T06:19:25.925Z,99722.00
2022-10-13T06:21:53.838Z,99720.00
2022-10-13T06:24:21.434Z,99717.20
2022-10-13T06:26:49.188Z,99720.00
2022-10-13T06:29:16.752Z,99715.80
2022-10-13T06:31:44.256Z,99718.40
2022-10-13T06:34:12.673Z,99718.20
2022-10-13T06:36:42.231Z,99710.60
2022-10-13T06:39:10.356Z,99710.00
2022-10-13T06:41:38.214Z,99709.20
2022-10-13T06:44:05.985Z,99711.40
2022-10-13T06:46:33.601Z,99700.40
2022-10-13T06:49:01.231Z,99703.80
2022-10-13T06:51:28.857Z,99700.60
2022-10-13T06:53:57.690Z,99697.20
2022-10-13T06:56:25.391Z,99693.20
2022-10-13T06:58:53.095Z,99690.20
2022-10-13T07:01:21.017Z,99680.20
2022-10-13T07:03:50.318Z,99684.40
2022-10-13T07:06:18.989Z,99685.40
2022-10-13T07:08:46.719Z,99683.20
2022-10-13T07:11:16.442Z,99684.20
2022-10-13T07:13:46.692Z,99681.80
2022-10-13T07:16:17.336Z,99682.80
2022-10-13T07:18:47.853Z,99688.20
2022-10-13T07:21:15.750Z,99685.80
2022-10-13T07:23:43.335Z,99690.60
2022-10-13T07:26:15.998Z,99691.00
2022-10-13T07:28:45.357Z,99694.40
2022-10-13T07:31:18.150Z,99687.00
2022-10-13T07:33:48.799Z,99688.20
2022-10-13T07:36:16.756Z,99688.00
2022-10-13T07:38:45.229Z,99686.80
2022-10-13T07:41:14.541Z,99688.00
2022-10-13T07:43:42.546Z,99694.40
2022-10-13T07:46:13.541Z,99689.60
2022-10-13T07:48:41.815Z,99683.80
2022-10-13T07:51:12.748Z,99679.60
2022-10-13T07:53:42.505Z,99686.40
2022-10-13T07:56:13.830Z,99687.00
2022-10-13T07:58:46.833Z,99684.00
2022-10-13T08:01:16.546Z,99676.00
2022-10-13T08:03:48.946Z,99674.80
2022-10-13T08:06:18.727Z,99673.40
2022-10-13T08:08:46.805Z,99668.40
2022-10-13T08:11:17.282Z,99666.20
2022-10-13T08:13:51.391Z,99656.80
2022-10-13T08:16:19.718Z,99661.00
2022-10-13T08:18:48.672Z,99660.20
2022-10-13T08:24:13.971Z,99657.40
2022-10-13T08:26:43.470Z,99654.20
2022-10-13T08:29:28.468Z,99662.40
2022-10-13T08:31:56.256Z,99653.40
2022-10-13T08:34:25.087Z,99648.60
2022-10-13T08:36:56.263Z,99646.60
2022-10-13T08:39:24.924Z,99637.60
2022-10-13T08:41:55.110Z,99640.60
2022-10-13T08:45:28.294Z,99636.80
2022-10-13T08:48:01.733Z,99641.80
2022-10-13T08:50:36.870Z,99638.00
2022-10-13T08:53:34.155Z,99632.60
2022-10-13T08:56:14.321Z,99636.00
2022-10-13T08:58:43.776Z,99626.20
2022-10-13T09:01:19.650Z,99626.20
2022-10-13T09:03:53.236Z,99621.80
2022-10-13T09:06:41.531Z,99616.80
2022-10-13T09:09:13.318Z,99610.60
2022-10-13T09:11:50.964Z,99608.40
2022-10-13T09:14:32.862Z,99617.40
2022-10-13T09:17:23.862Z,99611.60
2022-10-13T09:20:08.093Z,99611.40
2022-10-13T09:22:40.557Z,99611.40
2022-10-13T09:25:08.622Z,99611.00
2022-10-13T09:27:52.387Z,99612.80
2022-10-13T09:30:41.058Z,99610.80
2022-10-13T09:33:09.043Z,99611.60
2022-10-13T09:36:04.825Z,99610.60
2022-10-13T09:38:34.532Z,99610.20
2022-10-13T09:41:21.908Z,99606.80
2022-10-13T09:43:49.618Z,99605.60
2022-10-13T09:46:56.999Z,99603.80
2022-10-13T09:49:43.817Z,99601.80
2022-10-13T09:52:14.523Z,99601.20
2022-10-13T09:54:52.252Z,99599.20
2022-10-13T09:57:41.475Z,99599.00
2022-10-13T10:00:27.788Z,99594.20
2022-10-13T10:03:00.225Z,99592.40
2022-10-13T10:05:56.225Z,99591.00
2022-10-13T10:09:03.083Z,99594.60
2022-10-13T10:11:41.404Z,99592.00
2022-10-13T10:14:35.907Z,99585.60
2022-10-13T10:17:54.429Z,99582.60
2022-10-13T10:20:37.374Z,99581.40
2022-10-13T10:23:49.340Z,99575.60
2022-10-13T10:26:32.450Z,99568.60
2022-10-13T10:29:17.549Z,99565.20
2022-10-13T10:32:41.417Z,99567.40
2022-10-13T10:35:22.099Z,99560.20
2022-10-13T10:38:09.416Z,99561.20
2022-10-13T10:41:07.815Z,99551.60
2022-10-13T10:43:56.854Z,99548.40
2022-10-13T10:46:41.269Z,99548.00
2022-10-13T10:49:29.593Z,99540.40
2022-10-13T10:52:00.060Z,99546.20
2022-10-13T10:55:01.580Z,99541.80
2022-10-13T10:58:00.628Z,99540.40
2022-10-13T11:00:28.831Z,99536.60
2022-10-13T11:03:31.436Z,99537.20
2022-10-13T11:06:20.933Z,99534.00
2022-10-13T11:08:50.659Z,99533.60
2022-10-13T11:11:25.065Z,99538.00
2022-10-13T11:14:05.059Z,99529.40
2022-10-13T11:17:01.279Z,99524.60
2022-10-13T11:19:39.033Z,99519.60
2022-10-13T11:22:06.518Z,99520.40
2022-10-13T11:24:34.131Z,99517.20
2022-10-13T11:27:07.977Z,99510.80
2022-10-13T11:29:45.633Z,99504.00
2022-10-13T11:32:30.948Z,99507.80
2022-10-13T11:35:04.539Z,99499.20
2022-10-13T11:38:07.797Z,99496.60
2022-10-13T11:41:17.704Z,99488.80
2022-10-13T11:44:05.957Z,99490.00
2022-10-13T11:46:55.645Z,99482.60
2022-10-13T11:49:44.357Z,99483.00
2022-10-13T11:52:39.781Z,99482.00
2022-10-13T11:55:43.913Z,99478.80
2022-10-13T11:58:18.520Z,99480.00
2022-10-13T12:01:04.641Z,99470.20
2022-10-13T12:03:39.210Z,99466.20
2022-10-13T12:06:16.636Z,99467.40
2022-10-13T12:08:51.760Z,99469.80
2022-10-13T12:11:38.412Z,99470.00
2022-10-13T12:14:24.189Z,99463.00
2022-10-13T12:19:32.130Z,99457.40
2022-10-13T12:22:01.604Z,99450.80
2022-10-13T12:24:31.095Z,99449.00
2022-10-13T12:26:58.963Z,99442.60
2022-10-13T12:29:32.276Z,99439.20
2022-10-13T12:32:17.729Z,99442.00
2022-10-13T12:34:45.402Z,99439.00
2022-10-13T12:37:33.711Z,99438.40
2022-10-13T12:40:04.525Z,99433.20
2022-10-13T12:42:36.120Z,99434.20
2022-10-13T12:45:05.949Z,99425.20
2022-10-13T12:47:49.065Z,99425.00
2022-10-13T12:50:27.500Z,99427.00
2022-10-13T12:53:12.558Z,99421.20
2022-10-13T12:56:07.436Z,99420.00
2022-10-13T12:58:36.109Z,99417.00
2022-10-13T13:01:14.311Z,99410.80
2022-10-13T13:03:44.137Z,99402.60
2022-10-13T13:06:14.462Z,99407.20
2022-10-13T13:08:43.358Z,99403.40
2022-10-13T13:11:34.596Z,99404.60
2022-10-13T13:14:24.593Z,99397.60
2022-10-13T13:17:12.843Z,99395.40
2022-10-13T13:19:43.912Z,99386.20
2022-10-13T13:22:11.769Z,99388.80
2022-10-13T13:24:40.463Z,99389.40
2022-10-13T13:27:32.409Z,99379.80
2022-10-13T13:30:00.073Z,99384.00
2022-10-13T13:32:28.897Z,99386.20
2022-10-13T13:34:56.619Z,99388.60
2022-10-13T13:37:38.388Z,99386.80
2022-10-13T13:40:15.980Z,99380.00
2022-10-13T13:42:43.793Z,99382.00
2022-10-13T13:45:21.846Z,99381.80
2022-10-13T13:47:49.882Z,99373.00
2022-10-13T13:50:27.805Z,99380.40
2022-10-13T13:52:55.518Z,99377.60
2022-10-13T13:55:24.258Z,99391.00
2022-10-13T13:57:52.137Z,99379.00
2022-10-13T14:00:20.716Z,99378.40
2022-10-13T14:02:49.782Z,99375.80
2022-10-13T14:05:17.440Z,99382.60
2022-10-13T14:07:45.105Z,99375.40
2022-10-13T14:10:12.740Z,99373.80
2022-10-13T14:12:40.442Z,99374.20
2022-10-13T14:15:09.239Z,99372.00
2022-10-13T14:17:36.856Z,99370.80
2022-10-13T14:20:05.496Z,99375.40
2022-10-13T14:22:33.381Z,99374.40
2022-10-13T14:25:00.960Z,99370.80
2022-10-13T14:27:28.633Z,99371.60
2022-10-13T14:29:56.280Z,99375.80
2022-10-13T14:32:24.309Z,99377.00
2022-10-13T14:34:51.853Z,99379.60
2022-10-13T14:37:23.067Z,99377.80
2022-10-13T14:39:51.151Z,99379.80
2022-10-13T14:42:18.756Z,99377.40
2022-10-13T14:44:46.329Z,99375.60
2022-10-13T14:47:14.088Z,99377.40
2022-10-13T14:49:41.621Z,99374.80
2022-10-13T14:52:09.888Z,99374.80
2022-10-13T14:54:40.073Z,99374.20
2022-10-13T14:57:15.670Z,99371.80
2022-10-13T14:59:43.717Z,99368.00
2022-10-13T15:02:12.113Z,99370.00
2022-10-13T15:04:40.004Z,99368.20
2022-10-13T15:07:07.959Z,99376.60
2022-10-13T15:09:52.304Z,99374.40
2022-10-13T15:12:23.507Z,99369.00
2022-10-13T15:14:51.307Z,99370.00
2022-10-13T15:17:18.850Z,99367.60
2022-10-13T15:19:46.465Z,99365.20
2022-10-13T15:22:14.825Z,99361.60
2022-10-13T15:24:43.379Z,99362.60
2022-10-13T15:27:11.197Z,99363.60
2022-10-13T15:29:38.741Z,99362.40
2022-10-13T15:32:13.597Z,99364.80
2022-10-13T15:34:41.206Z,99359.20
2022-10-13T15:37:08.997Z,99361.20
2022-10-13T15:39:37.002Z,99360.60
2022-10-13T15:42:05.479Z,99361.60
2022-10-13T15:44:57.307Z,99361.00
2022-10-13T15:47:21.118Z,99353.00
2022-10-13T15:49:48.750Z,99348.80
2022-10-13T15:52:16.412Z,99353.00
2022-10-13T15:54:44.069Z,99352.40
2022-10-13T15:57:11.580Z,99351.00
2022-10-13T15:59:39.181Z,99347.40
2022-10-13T16:02:06.769Z,99349.60
2022-10-13T16:04:37.443Z,99352.00
2022-10-13T16:07:05.349Z,99353.00
2022-10-13T16:09:33.017Z,99353.20
2022-10-13T16:12:00.687Z,99356.80
2022-10-13T16:14:28.503Z,99353.60
2022-10-13T16:16:58.122Z,99353.00
2022-10-13T16:19:25.662Z,99354.00
2022-10-13T16:21:53.279Z,99353.00
2022-10-13T16:24:21.506Z,99349.40
2022-10-13T16:26:49.142Z,99351.20
2022-10-13T16:29:16.865Z,99353.60
2022-10-13T16:31:45.086Z,99354.40
2022-10-13T16:34:12.597Z,99354.40
2022-10-13T16:36:40.141Z,99351.80
2022-10-13T16:39:07.731Z,99351.80
2022-10-13T16:41:35.408Z,99350.20
2022-10-13T16:44:03.170Z,99352.40
2022-10-13T16:46:33.122Z,99351.60
2022-10-13T16:49:01.014Z,99347.60
2022-10-13T16:51:29.102Z,99349.80
2022-10-13T16:54:04.137Z,99346.40
2022-10-13T16:56:32.908Z,99346.20
2022-10-13T16:59:05.069Z,99346.20
2022-10-13T17:01:35.740Z,99347.40
2022-10-13T17:04:05.239Z,99348.20
2022-10-13T17:06:33.155Z,99344.80
2022-10-13T17:09:03.383Z,99344.80
2022-10-13T17:11:34.124Z,99346.00
2022-10-13T17:14:02.733Z,99345.60
2022-10-13T17:16:32.797Z,99343.00
2022-10-13T17:19:00.564Z,99346.60
2022-10-13T17:21:28.264Z,99341.00
2022-10-13T17:23:56.867Z,99344.20
2022-10-13T17:26:24.565Z,99344.40
2022-10-13T17:28:53.461Z,99346.60
2022-10-13T17:31:23.899Z,99347.00
2022-10-13T17:33:53.204Z,99348.20
2022-10-13T17:36:26.165Z,99342.20
2022-10-13T17:38:56.229Z,99340.80
2022-10-13T17:41:24.945Z,99347.00
2022-10-13T17:43:52.911Z,99344.80
2022-10-13T17:46:40.608Z,99341.40
2022-10-13T17:49:12.472Z,99343.40
2022-10-13T17:51:42.847Z,99346.80
2022-10-13T17:54:15.933Z,99344.00
2022-10-13T17:56:45.359Z,99342.00
2022-10-13T17:59:15.553Z,99347.20
2022-10-13T18:01:45.911Z,99343.20
2022-10-13T18:04:18.068Z,99345.40
2022-10-13T18:06:46.384Z,99347.20
2022-10-13T18:09:20.596Z,99344.80
2022-10-13T18:11:51.114Z,99347.20
2022-10-13T18:14:22.280Z,99348.40
2022-10-13T18:16:52.023Z,99347.20
2022-10-13T18:19:21.388Z,99345.20
2022-10-13T18:21:49.889Z,99347.60
2022-10-13T18:24:17.687Z,99348.80
2022-10-13T18:26:46.418Z,99346.40
2022-10-13T18:29:14.162Z,99347.00
2022-10-13T18:31:43.547Z,99346.20
2022-10-13T18:34:15.951Z,99345.40
2022-10-13T18:36:50.837Z,99343.40
2022-10-13T18:39:29.382Z,99342.40
2022-10-13T18:41:57.565Z,99341.60
2022-10-13T18:44:25.280Z,99348.80
2022-10-13T18:46:56.306Z,99341.60
2022-10-13T18:49:30.913Z,99339.00
2022-10-13T18:52:01.722Z,99341.20
2022-10-13T18:54:30.311Z,99339.00
2022-10-13T18:56:57.968Z,99337.60
2022-10-13T18:59:26.245Z,99333.00
2022-10-13T19:01:53.826Z,99332.40
2022-10-13T19:04:22.371Z,99327.60
2022-10-13T19:06:50.058Z,99329.80
2022-10-13T19:09:17.686Z,99329.40
2022-10-13T19:11:45.379Z,99323.40
2022-10-13T19:14:13.861Z,99327.00
2022-10-13T19:16:44.209Z,99333.00
2022-10-13T19:19:13.004Z,99329.40
2022-10-13T19:21:41.847Z,99328.40
2022-10-13T19:24:10.407Z,99330.00
2022-10-13T19:26:41.727Z,99336.00
2022-10-13T19:29:13.154Z,99328.60
2022-10-13T19:31:43.058Z,99328.60
2022-10-13T19:34:13.546Z,99328.20
2022-10-13T19:36:45.228Z,99327.40
2022-10-13T19:39:23.930Z,99328.40
2022-10-13T19:41:55.509Z,99326.20
2022-10-13T19:44:25.332Z,99326.20
2022-10-13T19:46:54.002Z,99324.60
2022-10-13T19:49:25.948Z,99329.00
2022-10-13T19:51:54.919Z,99328.80
2022-10-13T19:54:23.724Z,99328.80
2022-10-13T19:56:52.545Z,99331.60
2022-10-13T19:59:20.963Z,99334.20
2022-10-13T20:01:48.795Z,99333.20
2022-10-13T20:04:20.556Z,99343.00
2022-10-13T20:06:50.001Z,99341.20
2022-10-13T20:09:19.538Z,99338.40
2022-10-13T20:11:52.076Z,99340.20
2022-10-13T20:14:20.346Z,99340.20
2022-10-13T20:16:48.603Z,99334.40
2022-10-13T20:19:19.467Z,99338.40
2022-10-13T20:21:48.053Z,99332.60
2022-10-13T20:24:15.995Z,99331.40
2022-10-13T20:26:43.571Z,99328.00
2022-10-13T20:29:11.294Z,99329.40
2022-10-13T20:31:39.293Z,99329.00
2022-10-13T20:34:07.730Z,99328.00
2022-10-13T20:36:38.872Z,99325.00
2022-10-13T20:39:09.053Z,99324.00
2022-10-13T20:41:36.828Z,99327.80
2022-10-13T20:44:04.583Z,99325.20
2022-10-13T20:46:32.198Z,99325.40
2022-10-13T20:49:15.038Z,99317.80
2022-10-13T20:51:43.437Z,99320.40
2022-10-13T20:54:14.723Z,99321.60
2022-10-13T20:56:43.557Z,99322.80
2022-10-13T20:59:14.726Z,99324.60
2022-10-13T21:01:43.073Z,99323.00
2022-10-13T21:04:11.377Z,99330.20
2022-10-13T21:06:41.360Z,99325.00
2022-10-13T21:09:10.788Z,99329.20
2022-10-13T21:11:39.748Z,99326.20
2022-10-13T21:14:09.474Z,99326.60
2022-10-13T21:16:39.388Z,99321.60
2022-10-13T21:19:07.733Z,99323.60
2022-10-13T21:21:38.011Z,99324.40
2022-10-13T21:24:08.378Z,99322.00
2022-10-13T21:26:37.250Z,99324.20
2022-10-13T21:29:05.588Z,99321.40
2022-10-13T21:31:33.201Z,99319.00
2022-10-13T21:34:00.985Z,99319.00
2022-10-13T21:36:32.172Z,99318.60
2022-10-13T21:39:06.090Z,99317.80
2022-10-13T21:41:34.193Z,99313.40
2022-10-13T21:44:02.061Z,99313.40
2022-10-13T21:46:33.287Z,99319.40
2022-10-13T21:49:05.265Z,99313.60
2022-10-13T21:51:37.414Z,99315.80
2022-10-13T21:54:09.458Z,99311.40
2022-10-13T21:56:39.452Z,99309.40
2022-10-13T21:59:09.990Z,99308.00
2022-10-13T22:01:37.837Z,99307.80
2022-10-13T22:04:06.320Z,99310.20
2022-10-13T22:06:34.461Z,99306.80
2022-10-13T22:09:05.581Z,99295.40
2022-10-13T22:11:36.525Z,99297.40
2022-10-13T22:14:05.629Z,99295.80
2022-10-13T22:16:39.622Z,99295.60
2022-10-13T22:19:07.955Z,99289.80
2022-10-13T22:21:41.378Z,99288.20
2022-10-13T22:24:13.348Z,99289.60
2022-10-13T22:26:43.064Z,99290.20
2022-10-13T22:29:15.973Z,99285.60
2022-10-13T22:31:44.064Z,99290.00
2022-10-13T22:34:13.862Z,99296.20
2022-10-13T22:36:45.117Z,99299.00
2022-10-13T22:39:14.828Z,99299.60
2022-10-13T22:41:42.452Z,99290.40
2022-10-13T22:44:10.452Z,99291.40
2022-10-13T22:46:39.737Z,99286.00
2022-10-13T22:49:08.404Z,99293.60
2022-10-13T22:51:37.266Z,99289.20
2022-10-13T22:54:05.614Z,99286.40
2022-10-13T22:56:35.169Z,99283.60
2022-10-13T22:59:07.991Z,99283.40
2022-10-13T23:01:36.742Z,99279.60
2022-10-13T23:04:04.763Z,99276.00
2022-10-13T23:06:34.865Z,99275.40
2022-10-13T23:09:07.394Z,99274.00
2022-10-13T23:11:35.469Z,99276.60
2022-10-13T23:14:03.938Z,99271.20
2022-10-13T23:16:33.175Z,99275.20
2022-10-13T23:19:01.313Z,99270.40
2022-10-13T23:21:30.567Z,99272.60
2022-10-13T23:24:06.072Z,99264.00
2022-10-13T23:26:35.480Z,99265.40
2022-10-13T23:29:07.005Z,99266.80
2022-10-13T23:31:34.691Z,99258.40
2022-10-13T23:34:02.344Z,99254.20
2022-10-13T23:36:32.621Z,99263.40
2022-10-13T23:39:05.287Z,99258.60
2022-10-13T23:41:34.843Z,99260.00
2022-10-13T23:44:02.561Z,99259.80
2022-10-13T23:46:30.753Z,99261.40
2022-10-13T23:48:58.392Z,99257.60
2022-10-13T23:51:26.564Z,99258.20
2022-10-13T23:53:55.540Z,99257.20
2022-10-13T23:56:23.693Z,99255.60
2022-10-13T23:58:51.837Z,99255.80
